Time;durP1;ratioP1;P1;durP2;ratioP2;P2;SDS_P1;SDS_P2;PMS_P1;PMS_P2;Temp;Humidity;BMP_temperature;BMP_pressure;BME280_temperature;BME280_humidity;BME280_pressure;Samples;Min_cycle;Max_cycle;Signal;HPM_P1;HPM_P2
2022/07/29 00:01:55;;;;;;;9.88;7.72;;;;;;;;;;5027083;28;20029;-58
2022/07/29 00:04:20;;;;;;;9.15;8.05;;;;;;;;;;5029014;28;20026;-57
2022/07/29 00:06:46;;;;;;;10.63;7.65;;;;;;;;;;5024487;28;20104;-58
2022/07/29 00:09:11;;;;;;;8.98;6.95;;;;;;;;;;5026854;28;20032;-57
2022/07/29 00:11:37;;;;;;;9.43;7.20;;;;;;;;;;5025398;28;20029;-57
2022/07/29 00:14:02;;;;;;;10.68;6.93;;;;;;;;;;5027820;28;20171;-57
2022/07/29 00:16:27;;;;;;;9.35;6.47;;;;;;;;;;5028843;28;20022;-57
2022/07/29 00:18:53;;;;;;;9.00;7.10;;;;;;;;;;5028129;28;20030;-57
2022/07/29 00:21:18;;;;;;;9.50;6.88;;;;;;;;;;5028047;28;20483;-57
2022/07/29 00:23:44;;;;;;;10.43;7.28;;;;;;;;;;5027652;28;20072;-57
2022/07/29 00:26:09;;;;;;;10.88;7.20;;;;;;;;;;5025893;28;20025;-57
2022/07/29 00:28:35;;;;;;;8.98;6.57;;;;;;;;;;5026304;28;20581;-57
2022/07/29 00:31:00;;;;;;;7.45;6.20;;;;;;;;;;5024027;28;20579;-57
2022/07/29 00:33:25;;;;;;;7.85;6.35;;;;;;;;;;5029860;28;20075;-57
2022/07/29 00:35:51;;;;;;;9.98;6.15;;;;;;;;;;5028945;28;20531;-57
2022/07/29 00:38:18;;;;;;;9.82;6.53;;;;;;;;;;5025707;28;20029;-57
2022/07/29 00:40:45;;;;;;;7.45;6.00;;;;;;;;;;5019421;28;20108;-57
2022/07/29 00:43:11;;;;;;;8.05;5.70;;;;;;;;;;5026352;28;20036;-57
2022/07/29 00:45:37;;;;;;;9.20;6.07;;;;;;;;;;5025731;28;20059;-57
2022/07/29 00:48:04;;;;;;;8.80;6.53;;;;;;;;;;5024646;28;20060;-57
2022/07/29 00:50:30;;;;;;;9.27;6.18;;;;;;;;;;5026385;28;20037;-57
2022/07/29 00:52:56;;;;;;;7.90;6.30;;;;;;;;;;5025304;28;20056;-57
2022/07/29 00:55:21;;;;;;;8.27;6.13;;;;;;;;;;5022584;28;20049;-57
2022/07/29 00:57:47;;;;;;;9.57;6.68;;;;;;;;;;5022640;28;20037;-57
2022/07/29 01:00:17;;;;;;;7.95;6.03;;;;;;;;;;5026129;28;20115;-57
2022/07/29 01:02:43;;;;;;;7.57;6.43;;;;;;;;;;5024885;28;20030;-57
2022/07/29 01:05:11;;;;;;;10.43;6.57;;;;;;;;;;5028249;28;20033;-57
2022/07/29 01:07:37;;;;;;;10.35;6.80;;;;;;;;;;5024853;28;20025;-57
2022/07/29 01:10:09;;;;;;;10.77;6.57;;;;;;;;;;5023692;28;20597;-57
2022/07/29 01:12:36;;;;;;;8.48;6.50;;;;;;;;;;5024838;28;20065;-57
2022/07/29 01:15:05;;;;;;;7.05;5.97;;;;;;;;;;5027200;28;20029;-57
2022/07/29 01:17:43;;;;;;;8.32;6.30;;;;;;;;;;5026874;28;20175;-57
2022/07/29 01:20:40;;;;;;;10.10;6.57;;;;;;;;;;5024768;28;20456;-57
2022/07/29 01:23:05;;;;;;;7.32;5.95;;;;;;;;;;5027528;28;20029;-58
2022/07/29 01:26:01;;;;;;;8.88;6.22;;;;;;;;;;5027751;28;20123;-57
2022/07/29 01:28:53;;;;;;;10.02;6.65;;;;;;;;;;5018326;28;20118;-57
2022/07/29 01:31:44;;;;;;;8.88;6.80;;;;;;;;;;5022613;28;20147;-58
2022/07/29 01:34:17;;;;;;;10.30;7.05;;;;;;;;;;5023090;28;20037;-58
2022/07/29 01:37:19;;;;;;;8.48;6.35;;;;;;;;;;5025509;28;20125;-58
2022/07/29 01:39:47;;;;;;;9.18;6.35;;;;;;;;;;5015255;28;20044;-57
2022/07/29 01:42:41;;;;;;;8.40;6.50;;;;;;;;;;5024672;28;20077;-57
2022/07/29 01:45:10;;;;;;;9.45;6.72;;;;;;;;;;5022108;28;20045;-57
2022/07/29 01:48:00;;;;;;;8.13;6.13;;;;;;;;;;5018581;28;20017;-58
2022/07/29 01:50:33;;;;;;;9.48;6.78;;;;;;;;;;5025199;28;20029;-58
2022/07/29 01:53:01;;;;;;;9.43;6.68;;;;;;;;;;5022389;28;20022;-57
2022/07/29 01:55:31;;;;;;;10.00;6.80;;;;;;;;;;5026279;28;20128;-58
2022/07/29 01:57:58;;;;;;;8.50;6.43;;;;;;;;;;5024491;28;20392;-58
2022/07/29 02:00:25;;;;;;;7.82;6.40;;;;;;;;;;5024596;28;20038;-57
2022/07/29 02:02:53;;;;;;;9.63;7.00;;;;;;;;;;5023111;28;20026;-57
2022/07/29 02:05:23;;;;;;;11.27;6.55;;;;;;;;;;5022746;28;20030;-58
2022/07/29 02:07:50;;;;;;;9.07;6.97;;;;;;;;;;5024108;28;20037;-58
2022/07/29 02:10:18;;;;;;;11.77;6.95;;;;;;;;;;5024509;28;20044;-58
2022/07/29 02:12:45;;;;;;;8.60;6.50;;;;;;;;;;5023598;28;20049;-57
2022/07/29 02:15:11;;;;;;;10.32;6.72;;;;;;;;;;5026723;28;20112;-58
2022/07/29 02:17:43;;;;;;;7.40;6.47;;;;;;;;;;5026251;28;20360;-57
2022/07/29 02:20:09;;;;;;;9.20;6.15;;;;;;;;;;5026381;28;20035;-58
2022/07/29 02:22:37;;;;;;;6.72;5.45;;;;;;;;;;5023901;28;20029;-58
2022/07/29 02:25:04;;;;;;;8.63;6.82;;;;;;;;;;5027118;28;20120;-58
2022/07/29 02:27:31;;;;;;;10.35;6.35;;;;;;;;;;5027480;28;20108;-57
2022/07/29 02:30:00;;;;;;;11.07;6.25;;;;;;;;;;5024776;28;20031;-57
2022/07/29 02:32:27;;;;;;;8.40;5.80;;;;;;;;;;5022677;28;20117;-58
2022/07/29 02:34:53;;;;;;;7.50;5.20;;;;;;;;;;5024882;28;20033;-58
2022/07/29 02:37:20;;;;;;;7.10;5.60;;;;;;;;;;5023912;28;20034;-58
2022/07/29 02:39:48;;;;;;;9.80;5.65;;;;;;;;;;5027252;28;20029;-58
2022/07/29 02:42:17;;;;;;;6.78;5.30;;;;;;;;;;5024901;28;20104;-58
2022/07/29 02:44:43;;;;;;;8.05;6.07;;;;;;;;;;5024727;28;20025;-59
2022/07/29 02:47:23;;;;;;;7.38;5.68;;;;;;;;;;5026890;28;20395;-58
2022/07/29 02:50:08;;;;;;;7.38;5.85;;;;;;;;;;5029866;28;20459;-57
2022/07/29 02:53:00;;;;;;;7.15;6.13;;;;;;;;;;5027586;28;20519;-58
2022/07/29 02:55:36;;;;;;;8.40;5.50;;;;;;;;;;5027809;28;20087;-57
2022/07/29 02:58:08;;;;;;;7.00;5.40;;;;;;;;;;5026479;28;20176;-56
2022/07/29 03:00:37;;;;;;;6.35;5.22;;;;;;;;;;5023058;28;20072;-56
2022/07/29 03:03:12;;;;;;;7.55;5.15;;;;;;;;;;5027244;28;20051;-57
2022/07/29 03:05:38;;;;;;;11.63;5.30;;;;;;;;;;5024505;28;20026;-57
2022/07/29 03:08:06;;;;;;;6.03;5.05;;;;;;;;;;5030190;28;20416;-57
2022/07/29 03:10:32;;;;;;;5.75;5.05;;;;;;;;;;5029074;28;20068;-57
2022/07/29 03:12:58;;;;;;;9.75;4.85;;;;;;;;;;5028981;28;20094;-57
2022/07/29 03:15:24;;;;;;;5.97;4.63;;;;;;;;;;5028364;28;20037;-57
2022/07/29 03:17:51;;;;;;;7.47;4.68;;;;;;;;;;5029072;28;20030;-57
2022/07/29 03:20:17;;;;;;;5.82;4.90;;;;;;;;;;5029782;28;20072;-57
2022/07/29 03:22:46;;;;;;;6.20;4.68;;;;;;;;;;5030341;28;20033;-58
2022/07/29 03:25:13;;;;;;;5.95;4.60;;;;;;;;;;5031219;28;20147;-57
2022/07/29 03:27:39;;;;;;;7.65;4.97;;;;;;;;;;5027630;28;20036;-57
2022/07/29 03:30:06;;;;;;;8.70;4.60;;;;;;;;;;5028947;28;20033;-57
2022/07/29 03:32:31;;;;;;;6.57;4.43;;;;;;;;;;5026938;28;20487;-57
2022/07/29 03:34:56;;;;;;;7.68;4.63;;;;;;;;;;5024927;28;20029;-56
2022/07/29 03:37:22;;;;;;;5.75;4.40;;;;;;;;;;5025552;28;20036;-57
2022/07/29 03:39:50;;;;;;;8.52;4.63;;;;;;;;;;5027483;28;20025;-57
2022/07/29 03:42:19;;;;;;;6.07;4.07;;;;;;;;;;5026991;28;20034;-57
2022/07/29 03:44:47;;;;;;;7.15;4.40;;;;;;;;;;5025951;28;20091;-57
2022/07/29 03:47:15;;;;;;;6.85;4.60;;;;;;;;;;5026746;28;20067;-56
2022/07/29 03:49:41;;;;;;;7.65;5.00;;;;;;;;;;5027040;28;20033;-57
2022/07/29 03:52:07;;;;;;;7.68;4.78;;;;;;;;;;5026550;28;20121;-57
2022/07/29 03:54:33;;;;;;;7.43;4.70;;;;;;;;;;5026677;28;20037;-58
2022/07/29 03:57:01;;;;;;;7.82;4.53;;;;;;;;;;5024978;28;20084;-59
2022/07/29 03:59:27;;;;;;;9.07;4.22;;;;;;;;;;5023285;28;20060;-59
2022/07/29 04:01:53;;;;;;;9.50;4.63;;;;;;;;;;5025331;28;20025;-59
2022/07/29 04:04:19;;;;;;;7.55;4.20;;;;;;;;;;5024848;28;20483;-59
2022/07/29 04:06:46;;;;;;;6.25;4.50;;;;;;;;;;5024797;28;20030;-59
2022/07/29 04:09:12;;;;;;;8.23;4.75;;;;;;;;;;5025550;28;20022;-59
2022/07/29 04:11:41;;;;;;;7.00;4.88;;;;;;;;;;5029255;28;20113;-60
2022/07/29 04:14:07;;;;;;;;;;;;;;;;;;5028912;28;20048;-59
2022/07/29 04:16:32;;;;;;;7.82;4.50;;;;;;;;;;5033333;28;20630;-59
2022/07/29 04:18:58;;;;;;;6.63;4.53;;;;;;;;;;5028823;28;20044;-59
2022/07/29 04:21:23;;;;;;;9.07;5.35;;;;;;;;;;5028173;28;20075;-59
2022/07/29 04:23:51;;;;;;;8.98;6.13;;;;;;;;;;5027854;28;20131;-61
2022/07/29 04:26:18;;;;;;;6.47;4.60;;;;;;;;;;5027087;28;20169;-59
2022/07/29 04:28:44;;;;;;;8.05;5.20;;;;;;;;;;5026346;28;20029;-60
2022/07/29 04:31:10;;;;;;;9.10;5.65;;;;;;;;;;5026549;28;20527;-59
2022/07/29 04:33:35;;;;;;;8.80;6.10;;;;;;;;;;5026101;28;20044;-59
2022/07/29 04:36:01;;;;;;;7.38;5.45;;;;;;;;;;5024247;28;20477;-59
2022/07/29 04:38:26;;;;;;;10.18;6.18;;;;;;;;;;5024621;28;20453;-59
2022/07/29 04:40:52;;;;;;;11.43;6.95;;;;;;;;;;5026083;28;20040;-59
2022/07/29 04:43:17;;;;;;;9.55;7.07;;;;;;;;;;5025991;28;20446;-59
2022/07/29 04:45:43;;;;;;;9.10;6.97;;;;;;;;;;5025971;28;20038;-59
2022/07/29 04:48:08;;;;;;;9.35;7.10;;;;;;;;;;5026750;28;20091;-59
2022/07/29 04:50:34;;;;;;;9.98;7.80;;;;;;;;;;5025878;28;20052;-59
2022/07/29 04:52:59;;;;;;;10.90;7.72;;;;;;;;;;5025242;28;20033;-59
2022/07/29 04:55:25;;;;;;;9.65;7.22;;;;;;;;;;5025660;28;20036;-59
2022/07/29 04:57:50;;;;;;;10.13;7.85;;;;;;;;;;5023025;28;20034;-59
2022/07/29 05:00:16;;;;;;;9.80;7.43;;;;;;;;;;5024443;28;20117;-59
2022/07/29 05:02:42;;;;;;;9.88;7.75;;;;;;;;;;5026294;28;20025;-59
2022/07/29 05:05:07;;;;;;;11.25;8.20;;;;;;;;;;5027621;28;20039;-59
2022/07/29 05:07:33;;;;;;;13.00;8.40;;;;;;;;;;5022670;28;20089;-59
2022/07/29 05:09:59;;;;;;;12.50;8.70;;;;;;;;;;5027840;28;20029;-59
2022/07/29 05:12:25;;;;;;;11.65;7.97;;;;;;;;;;5027700;28;20436;-59
2022/07/29 05:14:50;;;;;;;10.88;7.45;;;;;;;;;;5029187;28;20052;-59
2022/07/29 05:17:16;;;;;;;10.30;7.50;;;;;;;;;;5024844;28;20041;-59
2022/07/29 05:19:41;;;;;;;10.32;6.78;;;;;;;;;;5026598;28;20037;-59
2022/07/29 05:22:06;;;;;;;8.88;5.93;;;;;;;;;;5026391;28;20041;-59
2022/07/29 05:24:32;;;;;;;7.32;5.43;;;;;;;;;;5026328;28;20278;-59
2022/07/29 05:26:57;;;;;;;8.65;5.00;;;;;;;;;;5026082;28;20043;-59
2022/07/29 05:29:22;;;;;;;7.32;5.30;;;;;;;;;;5021330;28;20033;-59
2022/07/29 05:31:48;;;;;;;6.75;4.65;;;;;;;;;;5027249;28;20021;-59
2022/07/29 05:34:13;;;;;;;7.25;4.72;;;;;;;;;;5026547;28;20025;-59
2022/07/29 05:36:39;;;;;;;6.85;4.93;;;;;;;;;;5025030;28;20475;-59
2022/07/29 05:39:04;;;;;;;7.03;4.80;;;;;;;;;;5020029;28;20120;-59
2022/07/29 05:41:32;;;;;;;8.35;5.13;;;;;;;;;;5014276;28;20037;-59
2022/07/29 05:43:58;;;;;;;14.35;6.93;;;;;;;;;;5022779;28;20037;-59
2022/07/29 05:46:23;;;;;;;9.30;5.60;;;;;;;;;;5024913;28;20033;-59
2022/07/29 05:48:49;;;;;;;9.02;5.70;;;;;;;;;;5023359;28;20045;-59
2022/07/29 05:51:14;;;;;;;10.52;5.65;;;;;;;;;;5023460;28;20104;-59
2022/07/29 05:53:40;;;;;;;9.45;5.55;;;;;;;;;;5024048;28;20463;-59
2022/07/29 05:56:06;;;;;;;9.18;6.35;;;;;;;;;;5024063;28;20021;-59
2022/07/29 05:58:31;;;;;;;14.02;6.30;;;;;;;;;;5021485;28;20399;-59
2022/07/29 06:01:00;;;;;;;12.02;7.78;;;;;;;;;;5022579;28;20068;-59
2022/07/29 06:03:26;;;;;;;13.82;8.52;;;;;;;;;;5022806;28;20526;-59
2022/07/29 06:05:51;;;;;;;11.23;7.03;;;;;;;;;;5024025;28;20044;-59
2022/07/29 06:08:17;;;;;;;13.68;7.10;;;;;;;;;;5020374;28;20470;-59
2022/07/29 06:10:43;;;;;;;11.40;7.65;;;;;;;;;;5023030;28;20037;-59
2022/07/29 06:13:08;;;;;;;10.27;6.70;;;;;;;;;;5023732;28;20025;-58
2022/07/29 06:15:34;;;;;;;10.95;7.10;;;;;;;;;;5023639;28;20068;-58
2022/07/29 06:17:59;;;;;;;11.32;6.70;;;;;;;;;;5024095;28;20103;-58
2022/07/29 06:20:24;;;;;;;8.95;6.18;;;;;;;;;;5023696;28;20608;-58
2022/07/29 06:22:50;;;;;;;9.38;6.93;;;;;;;;;;5025358;28;20080;-58
2022/07/29 06:25:16;;;;;;;9.65;6.32;;;;;;;;;;5028379;28;20132;-58
2022/07/29 06:27:41;;;;;;;9.82;6.00;;;;;;;;;;5027730;28;20021;-58
2022/07/29 06:30:07;;;;;;;8.93;6.60;;;;;;;;;;5024901;28;20104;-58
2022/07/29 06:32:33;;;;;;;11.00;5.80;;;;;;;;;;5027559;28;20057;-58
2022/07/29 06:34:59;;;;;;;10.13;6.22;;;;;;;;;;5029150;28;20051;-58
2022/07/29 06:37:24;;;;;;;8.57;5.38;;;;;;;;;;5026070;28;20034;-58
2022/07/29 06:40:59;;;;;;;11.88;5.88;;;;;;;;;;5022264;28;20025;-58
2022/07/29 06:42:35;;;;;;;9.43;5.45;;;;;;;;;;5025930;28;20134;-58
2022/07/29 06:45:00;;;;;;;8.35;5.43;;;;;;;;;;5025806;28;20119;-58
2022/07/29 06:47:26;;;;;;;8.57;5.38;;;;;;;;;;5025468;28;20053;-58
2022/07/29 06:49:51;;;;;;;7.57;5.65;;;;;;;;;;5027958;28;20261;-58
2022/07/29 06:52:17;;;;;;;8.10;6.22;;;;;;;;;;5023667;28;20059;-58
2022/07/29 06:54:47;;;;;;;7.85;5.40;;;;;;;;;;5025256;28;20044;-58
2022/07/29 06:57:13;;;;;;;8.68;5.88;;;;;;;;;;5027155;28;20033;-58
2022/07/29 06:59:39;;;;;;;7.85;5.40;;;;;;;;;;5023474;28;20044;-58
2022/07/29 07:02:04;;;;;;;6.65;5.13;;;;;;;;;;5024525;28;20144;-57
2022/07/29 07:04:29;;;;;;;5.68;5.07;;;;;;;;;;5026596;28;20021;-58
2022/07/29 07:06:55;;;;;;;8.98;5.80;;;;;;;;;;5026456;28;20410;-50
2022/07/29 07:09:21;;;;;;;8.40;5.72;;;;;;;;;;5026021;28;20026;-57
2022/07/29 07:11:46;;;;;;;6.65;5.30;;;;;;;;;;5025812;28;20073;-57
2022/07/29 07:14:12;;;;;;;7.72;5.72;;;;;;;;;;5027859;28;20025;-58
2022/07/29 07:16:37;;;;;;;8.88;5.80;;;;;;;;;;5026936;28;20021;-58
2022/07/29 07:19:03;;;;;;;8.25;6.20;;;;;;;;;;5024782;28;20540;-58
2022/07/29 07:21:29;;;;;;;7.93;5.85;;;;;;;;;;5024815;28;20284;-58
2022/07/29 07:23:54;;;;;;;7.82;5.72;;;;;;;;;;5025724;28;20027;-57
2022/07/29 07:26:20;;;;;;;7.40;6.05;;;;;;;;;;5027451;28;20453;-57
2022/07/29 07:28:45;;;;;;;7.85;6.18;;;;;;;;;;5025361;28;20147;-57
2022/07/29 07:31:11;;;;;;;8.63;6.57;;;;;;;;;;5024324;28;20017;-57
2022/07/29 07:33:37;;;;;;;10.23;6.40;;;;;;;;;;5026265;28;20025;-57
2022/07/29 07:36:02;;;;;;;9.30;6.72;;;;;;;;;;5026912;28;20025;-59
2022/07/29 07:38:28;;;;;;;9.10;6.30;;;;;;;;;;5025121;28;20521;-57
2022/07/29 07:40:54;;;;;;;10.45;7.07;;;;;;;;;;5025789;28;20391;-58
2022/07/29 07:43:19;;;;;;;9.30;6.65;;;;;;;;;;5022944;28;20052;-58
2022/07/29 07:45:45;;;;;;;8.98;6.70;;;;;;;;;;5026468;28;20018;-58
2022/07/29 07:48:10;;;;;;;9.60;6.07;;;;;;;;;;5026282;28;20039;-58
2022/07/29 07:50:36;;;;;;;8.23;6.68;;;;;;;;;;5024771;28;20018;-58
2022/07/29 07:53:02;;;;;;;9.07;6.30;;;;;;;;;;5022011;28;20413;-58
2022/07/29 07:55:28;;;;;;;11.48;6.82;;;;;;;;;;5024365;28;20079;-58
2022/07/29 07:57:54;;;;;;;7.22;6.13;;;;;;;;;;5022825;28;20037;-58
2022/07/29 08:00:20;;;;;;;9.32;6.53;;;;;;;;;;5023694;28;20029;-58
2022/07/29 08:02:46;;;;;;;9.57;6.53;;;;;;;;;;5021906;28;20028;-58
2022/07/29 08:05:16;;;;;;;8.45;6.63;;;;;;;;;;5026544;28;20033;-58
2022/07/29 08:07:43;;;;;;;9.30;6.60;;;;;;;;;;5024629;28;20025;-58
2022/07/29 08:10:09;;;;;;;7.55;6.57;;;;;;;;;;5023293;28;20103;-58
2022/07/29 08:12:34;;;;;;;9.75;7.35;;;;;;;;;;5022752;28;20105;-58
2022/07/29 08:15:00;;;;;;;8.73;7.60;;;;;;;;;;5025145;28;20036;-58
2022/07/29 08:17:26;;;;;;;8.90;6.90;;;;;;;;;;5028734;28;20092;-58
2022/07/29 08:19:52;;;;;;;12.93;7.32;;;;;;;;;;5022986;28;20028;-58
2022/07/29 08:22:17;;;;;;;8.95;6.72;;;;;;;;;;5024833;28;20025;-58
2022/07/29 08:24:42;;;;;;;9.95;6.85;;;;;;;;;;5024365;28;20068;-58
2022/07/29 08:27:09;;;;;;;8.57;6.88;;;;;;;;;;5026728;28;20241;-58
2022/07/29 08:29:35;;;;;;;10.55;6.63;;;;;;;;;;5022240;28;20032;-58
2022/07/29 08:32:01;;;;;;;11.32;6.90;;;;;;;;;;5017553;28;20038;-58
2022/07/29 08:34:26;;;;;;;8.20;7.40;;;;;;;;;;5026088;28;20086;-58
2022/07/29 08:36:52;;;;;;;9.88;7.50;;;;;;;;;;5023823;28;20399;-58
2022/07/29 08:39:17;;;;;;;10.15;7.35;;;;;;;;;;5024306;28;20036;-58
2022/07/29 08:41:43;;;;;;;10.80;7.35;;;;;;;;;;5022295;28;20033;-59
2022/07/29 08:44:09;;;;;;;9.88;6.80;;;;;;;;;;5022827;28;20082;-58
2022/07/29 08:46:37;;;;;;;11.25;7.25;;;;;;;;;;5022384;28;20036;-58
2022/07/29 08:49:03;;;;;;;8.95;7.05;;;;;;;;;;5024798;28;20080;-58
2022/07/29 08:51:30;;;;;;;12.30;8.77;;;;;;;;;;5023445;28;20061;-58
2022/07/29 08:53:56;;;;;;;10.40;7.88;;;;;;;;;;5026540;28;20403;-58
2022/07/29 08:56:22;;;;;;;9.10;7.60;;;;;;;;;;5024169;28;20033;-58
2022/07/29 08:58:48;;;;;;;8.82;7.57;;;;;;;;;;5025835;28;20037;-58
2022/07/29 09:01:17;;;;;;;10.02;7.25;;;;;;;;;;5021218;28;20064;-58
2022/07/29 09:03:44;;;;;;;13.20;7.03;;;;;;;;;;5021645;28;20040;-58
2022/07/29 09:06:14;;;;;;;8.48;7.68;;;;;;;;;;5024872;28;20235;-58
2022/07/29 09:08:39;;;;;;;10.38;7.53;;;;;;;;;;5025771;28;20019;-58
2022/07/29 09:11:07;;;;;;;8.82;7.18;;;;;;;;;;5025394;28;20025;-58
2022/07/29 09:13:32;;;;;;;12.23;7.47;;;;;;;;;;5021861;28;20026;-58
2022/07/29 09:15:58;;;;;;;9.85;7.47;;;;;;;;;;5023094;28;20039;-58
2022/07/29 09:18:36;;;;;;;11.00;7.93;;;;;;;;;;5023592;28;20041;-58
2022/07/29 09:24:04;;;;;;;9.13;7.65;;;;;;;;;;5019979;28;20106;-58
2022/07/29 09:26:31;;;;;;;10.00;7.20;;;;;;;;;;5021991;28;20506;-58
2022/07/29 09:28:57;;;;;;;10.90;8.30;;;;;;;;;;5021246;28;20472;-58
2022/07/29 09:31:34;;;;;;;9.05;8.07;;;;;;;;;;5020350;28;20040;-58
2022/07/29 09:34:00;;;;;;;10.00;7.88;;;;;;;;;;5023295;28;20045;-58
2022/07/29 09:36:26;;;;;;;12.13;7.82;;;;;;;;;;5023672;28;20080;-58
2022/07/29 09:39:01;;;;;;;12.10;8.07;;;;;;;;;;5020831;28;20112;-58
2022/07/29 09:41:27;;;;;;;13.90;8.73;;;;;;;;;;5021741;28;20537;-58
2022/07/29 09:43:57;;;;;;;11.18;7.53;;;;;;;;;;5022939;28;20036;-58
2022/07/29 09:46:24;;;;;;;11.40;8.00;;;;;;;;;;5022182;28;20480;-58
2022/07/29 09:49:09;;;;;;;10.68;8.13;;;;;;;;;;5020756;28;20090;-58
2022/07/29 09:51:35;;;;;;;10.60;8.00;;;;;;;;;;5020917;28;20021;-59
2022/07/29 09:54:03;;;;;;;12.40;7.80;;;;;;;;;;5026570;28;20033;-58
2022/07/29 09:56:42;;;;;;;10.23;7.88;;;;;;;;;;5021354;28;20025;-58
2022/07/29 09:59:09;;;;;;;11.93;7.60;;;;;;;;;;5022130;28;20398;-58
2022/07/29 10:01:35;;;;;;;10.23;8.05;;;;;;;;;;5022637;28;20029;-58
2022/07/29 10:04:01;;;;;;;9.80;7.30;;;;;;;;;;5025443;28;20043;-58
2022/07/29 10:06:27;;;;;;;11.07;7.35;;;;;;;;;;5021706;28;20026;-58
2022/07/29 10:08:53;;;;;;;10.00;7.28;;;;;;;;;;5022868;28;20052;-59
2022/07/29 10:11:19;;;;;;;10.75;7.13;;;;;;;;;;5021946;28;20147;-58
2022/07/29 10:13:46;;;;;;;8.43;6.32;;;;;;;;;;5025228;28;20128;-58
2022/07/29 10:16:13;;;;;;;10.80;6.82;;;;;;;;;;5021131;28;20022;-58
2022/07/29 10:18:41;;;;;;;10.23;6.45;;;;;;;;;;5023681;28;20021;-58
2022/07/29 10:21:07;;;;;;;10.20;6.72;;;;;;;;;;5020914;28;20064;-59
2022/07/29 10:23:34;;;;;;;9.50;7.05;;;;;;;;;;5022709;28;20452;-58
2022/07/29 10:25:59;;;;;;;10.73;6.90;;;;;;;;;;5022282;28;20030;-58
2022/07/29 10:28:25;;;;;;;9.85;6.63;;;;;;;;;;5022291;28;20561;-58
2022/07/29 10:30:57;;;;;;;9.77;7.00;;;;;;;;;;5016720;28;20060;-58
2022/07/29 10:33:52;;;;;;;7.50;6.80;;;;;;;;;;5022451;28;20107;-58
2022/07/29 10:36:39;;;;;;;7.20;6.30;;;;;;;;;;5015845;28;20046;-58
2022/07/29 10:39:19;;;;;;;10.00;6.63;;;;;;;;;;5019147;28;20029;-58
2022/07/29 10:42:11;;;;;;;8.00;6.90;;;;;;;;;;5017692;28;20558;-59
2022/07/29 10:44:40;;;;;;;8.73;6.60;;;;;;;;;;5017610;28;20042;-58
2022/07/29 10:47:06;;;;;;;7.90;6.60;;;;;;;;;;5023056;28;20633;-58
2022/07/29 10:49:31;;;;;;;9.27;6.80;;;;;;;;;;5021726;28;20022;-58
2022/07/29 10:52:10;;;;;;;10.52;6.63;;;;;;;;;;5020735;28;20527;-58
2022/07/29 10:54:38;;;;;;;;;;;;;;;;;;5020578;28;20418;-58
2022/07/29 10:57:30;;;;;;;8.65;6.85;;;;;;;;;;5023924;28;19917;-58
2022/07/29 11:00:10;;;;;;;13.98;7.32;;;;;;;;;;5019759;28;20041;-59
2022/07/29 11:02:51;;;;;;;7.45;6.30;;;;;;;;;;5016062;28;20395;-58
2022/07/29 11:05:19;;;;;;;7.30;6.10;;;;;;;;;;5020213;28;20506;-58
2022/07/29 11:08:12;;;;;;;7.72;6.93;;;;;;;;;;5023069;28;20114;-59
2022/07/29 11:10:38;;;;;;;9.75;6.45;;;;;;;;;;5024693;28;20033;-58
2022/07/29 11:13:04;;;;;;;7.88;6.13;;;;;;;;;;5024376;28;20033;-58
2022/07/29 11:15:55;;;;;;;10.07;6.53;;;;;;;;;;5019887;28;20402;-59
2022/07/29 11:18:21;;;;;;;8.75;6.90;;;;;;;;;;5026202;28;20116;-58
2022/07/29 11:20:49;;;;;;;7.47;6.47;;;;;;;;;;5026196;28;20116;-58
2022/07/29 11:23:26;;;;;;;7.75;6.55;;;;;;;;;;5024659;28;20113;-58
2022/07/29 11:26:13;;;;;;;10.35;6.70;;;;;;;;;;5027465;28;20027;-58
2022/07/29 11:29:28;;;;;;;8.65;6.50;;;;;;;;;;5024684;28;20036;-58
2022/07/29 11:32:11;;;;;;;8.73;6.45;;;;;;;;;;5022504;28;20041;-58
2022/07/29 11:34:40;;;;;;;8.70;6.00;;;;;;;;;;5025210;28;20404;-58
2022/07/29 11:37:12;;;;;;;7.15;6.40;;;;;;;;;;5022706;28;20030;-59
2022/07/29 11:39:46;;;;;;;9.43;6.72;;;;;;;;;;5017693;28;20407;-58
2022/07/29 11:42:21;;;;;;;8.95;6.55;;;;;;;;;;5023849;28;20048;-58
2022/07/29 11:44:58;;;;;;;8.63;6.97;;;;;;;;;;5014152;28;20025;-58
2022/07/29 11:47:29;;;;;;;10.13;6.90;;;;;;;;;;5028105;28;20022;-59
2022/07/29 11:49:56;;;;;;;7.57;6.55;;;;;;;;;;5024284;28;20025;-59
2022/07/29 11:52:23;;;;;;;7.97;6.30;;;;;;;;;;5024767;28;20030;-59
2022/07/29 11:54:51;;;;;;;8.93;6.63;;;;;;;;;;5024016;28;20026;-59
2022/07/29 11:57:18;;;;;;;10.55;6.25;;;;;;;;;;5022686;28;20032;-59
2022/07/29 11:59:46;;;;;;;8.18;5.22;;;;;;;;;;5025465;28;20037;-59
2022/07/29 12:02:12;;;;;;;8.80;4.57;;;;;;;;;;5021935;28;20483;-59
2022/07/29 12:04:55;;;;;;;8.48;4.72;;;;;;;;;;5026385;28;20407;-59
2022/07/29 12:07:31;;;;;;;4.90;4.05;;;;;;;;;;5025262;28;20561;-57
2022/07/29 12:09:56;;;;;;;7.50;4.00;;;;;;;;;;5023435;28;20115;-59
2022/07/29 12:12:22;;;;;;;4.43;3.50;;;;;;;;;;5023104;28;20148;-57
2022/07/29 12:14:48;;;;;;;5.35;3.03;;;;;;;;;;5026733;28;20029;-58
2022/07/29 12:17:33;;;;;;;4.97;2.80;;;;;;;;;;5024340;28;20029;-58
2022/07/29 12:20:02;;;;;;;5.13;3.08;;;;;;;;;;5022357;28;20365;-57
2022/07/29 12:22:41;;;;;;;3.30;3.00;;;;;;;;;;5020517;28;20025;-58
2022/07/29 12:25:11;;;;;;;3.30;3.00;;;;;;;;;;5026145;28;20033;-58
2022/07/29 12:27:38;;;;;;;4.05;3.45;;;;;;;;;;5022154;28;20057;-58
2022/07/29 12:30:12;;;;;;;4.88;3.85;;;;;;;;;;5021457;28;20496;-58
2022/07/29 12:32:40;;;;;;;7.18;4.40;;;;;;;;;;5022937;28;20037;-59
2022/07/29 12:35:09;;;;;;;5.20;3.72;;;;;;;;;;5023863;28;20033;-59
2022/07/29 12:37:36;;;;;;;5.78;4.00;;;;;;;;;;5022990;28;20033;-58
2022/07/29 12:40:04;;;;;;;4.35;3.85;;;;;;;;;;5019754;28;20144;-59
2022/07/29 12:42:29;;;;;;;4.13;3.63;;;;;;;;;;5023275;28;20072;-59
2022/07/29 12:44:55;;;;;;;6.90;4.95;;;;;;;;;;5024739;28;20052;-59
2022/07/29 12:47:21;;;;;;;5.80;5.15;;;;;;;;;;5021166;28;20029;-59
2022/07/29 12:49:47;;;;;;;6.32;5.75;;;;;;;;;;5023872;28;20029;-59
2022/07/29 12:52:27;;;;;;;5.20;4.70;;;;;;;;;;5024700;28;20095;-59
2022/07/29 12:54:53;;;;;;;7.53;5.20;;;;;;;;;;5022480;28;20044;-59
2022/07/29 12:57:18;;;;;;;9.27;5.40;;;;;;;;;;5022552;28;20368;-59
2022/07/29 12:59:44;;;;;;;7.22;5.43;;;;;;;;;;5020096;28;20091;-59
2022/07/29 13:02:22;;;;;;;6.55;5.00;;;;;;;;;;5020085;28;20257;-59
2022/07/29 13:04:58;;;;;;;9.27;5.78;;;;;;;;;;5021718;28;20021;-59
2022/07/29 13:07:29;;;;;;;6.80;5.43;;;;;;;;;;5020907;28;20036;-61
2022/07/29 13:10:09;;;;;;;15.00;7.57;;;;;;;;;;5021647;28;20043;-58
2022/07/29 13:12:34;;;;;;;12.10;8.23;;;;;;;;;;5022854;28;20029;-58
2022/07/29 13:15:00;;;;;;;14.02;6.38;;;;;;;;;;5022794;28;20029;-58
2022/07/29 13:17:28;;;;;;;10.00;6.88;;;;;;;;;;5020212;28;20084;-58
2022/07/29 13:20:14;;;;;;;8.13;6.37;;;;;;;;;;5023567;28;20065;-59
2022/07/29 13:22:42;;;;;;;8.23;7.10;;;;;;;;;;5021192;28;20041;-59
2022/07/29 13:25:09;;;;;;;10.50;7.23;;;;;;;;;;5023485;28;20029;-59
2022/07/29 13:27:37;;;;;;;13.55;7.55;;;;;;;;;;5023372;28;20280;-59
2022/07/29 13:30:08;;;;;;;9.20;7.28;;;;;;;;;;5021608;28;20029;-59
2022/07/29 13:32:34;;;;;;;8.15;7.35;;;;;;;;;;5022458;28;20506;-58
2022/07/29 13:35:03;;;;;;;9.77;7.63;;;;;;;;;;5018592;28;20042;-58
2022/07/29 13:37:29;;;;;;;10.05;7.65;;;;;;;;;;5023254;28;20033;-58
2022/07/29 13:39:56;;;;;;;13.52;8.70;;;;;;;;;;5019776;28;20639;-58
2022/07/29 13:42:22;;;;;;;12.48;8.05;;;;;;;;;;5020719;28;20052;-58
2022/07/29 13:44:51;;;;;;;15.18;9.65;;;;;;;;;;5021018;28;20026;-58
2022/07/29 13:47:20;;;;;;;9.85;8.02;;;;;;;;;;5021650;28;20438;-58
2022/07/29 13:49:46;;;;;;;9.95;8.07;;;;;;;;;;5023498;28;20026;-58
2022/07/29 13:52:11;;;;;;;12.68;7.45;;;;;;;;;;5022927;28;20035;-58
2022/07/29 13:54:38;;;;;;;11.52;8.13;;;;;;;;;;5021437;28;20695;-58
2022/07/29 13:57:07;;;;;;;10.52;7.55;;;;;;;;;;5023546;28;20030;-58
2022/07/29 13:59:32;;;;;;;13.43;7.88;;;;;;;;;;5022377;28;20396;-59
2022/07/29 14:01:58;;;;;;;15.57;8.90;;;;;;;;;;5023492;28;20029;-60
2022/07/29 14:04:23;;;;;;;14.50;8.02;;;;;;;;;;5023444;28;20033;-59
2022/07/29 14:06:49;;;;;;;12.50;8.50;;;;;;;;;;5025243;28;20032;-59
2022/07/29 14:09:15;;;;;;;15.00;8.90;;;;;;;;;;5023730;28;20026;-60
2022/07/29 14:11:40;;;;;;;16.90;11.43;;;;;;;;;;5027605;28;20163;-60
2022/07/29 14:14:06;;;;;;;11.98;8.80;;;;;;;;;;5022669;28;20091;-60
2022/07/29 14:16:31;;;;;;;13.82;8.52;;;;;;;;;;5023021;28;20029;-60
2022/07/29 14:18:57;;;;;;;12.48;8.70;;;;;;;;;;5025599;28;20041;-61
2022/07/29 14:21:22;;;;;;;11.32;8.25;;;;;;;;;;5028144;28;20029;-59
2022/07/29 14:23:48;;;;;;;15.13;8.57;;;;;;;;;;5023660;28;20479;-61
2022/07/29 14:26:13;;;;;;;10.93;8.13;;;;;;;;;;5025145;28;20403;-60
2022/07/29 14:28:39;;;;;;;12.07;8.15;;;;;;;;;;5027289;28;20163;-60
2022/07/29 14:31:04;;;;;;;16.80;10.15;;;;;;;;;;5024689;28;20034;-59
2022/07/29 14:33:29;;;;;;;18.55;11.85;;;;;;;;;;5024070;28;20483;-59
2022/07/29 14:35:55;;;;;;;16.52;10.65;;;;;;;;;;5023455;28;20032;-58
2022/07/29 14:38:20;;;;;;;15.65;8.80;;;;;;;;;;5022684;28;20022;-58
2022/07/29 14:40:46;;;;;;;11.90;9.40;;;;;;;;;;5026533;28;20492;-58
2022/07/29 14:43:13;;;;;;;15.23;11.23;;;;;;;;;;5025571;28;20055;-58
2022/07/29 14:45:39;;;;;;;13.85;11.02;;;;;;;;;;5032507;28;20029;-58
2022/07/29 14:48:04;;;;;;;13.15;9.27;;;;;;;;;;5027183;28;20041;-58
2022/07/29 14:50:30;;;;;;;9.48;8.50;;;;;;;;;;5026288;28;20032;-58